createdAt,value
2023-06-10T00:02:56.944Z,22.00
2023-06-10T00:06:00.821Z,21.82
2023-06-10T00:09:11.245Z,22.03
2023-06-10T00:12:16.170Z,22.03
2023-06-10T00:15:20.049Z,22.15
2023-06-10T00:18:23.792Z,22.07
2023-06-10T00:21:27.670Z,21.85
2023-06-10T00:24:33.091Z,21.97
2023-06-10T00:27:37.351Z,21.92
2023-06-10T00:30:41.217Z,22.07
2023-06-10T00:33:47.649Z,21.96
2023-06-10T00:36:51.813Z,21.99
2023-06-10T00:39:56.955Z,21.94
2023-06-10T00:43:00.965Z,21.98
2023-06-10T00:46:04.996Z,21.96
2023-06-10T00:49:09.404Z,22.00
2023-06-10T00:52:17.166Z,21.99
2023-06-10T00:55:22.622Z,21.97
2023-06-10T00:58:26.900Z,21.95
2023-06-10T01:01:32.090Z,22.01
2023-06-10T01:04:39.102Z,22.11
2023-06-10T01:07:50.060Z,21.80
2023-06-10T01:11:00.557Z,22.00
2023-06-10T01:14:08.854Z,21.98
2023-06-10T01:17:12.962Z,22.19
2023-06-10T01:20:18.549Z,22.00
2023-06-10T01:23:23.821Z,22.04
2023-06-10T01:26:33.562Z,22.12
2023-06-10T01:29:44.169Z,22.00
2023-06-10T01:32:51.259Z,21.87
2023-06-10T01:35:56.498Z,22.09
2023-06-10T01:39:03.184Z,22.03
2023-06-10T01:42:08.333Z,22.09
2023-06-10T01:45:13.808Z,21.94
2023-06-10T01:48:18.668Z,21.94
2023-06-10T01:51:22.702Z,21.90
2023-06-10T01:54:28.570Z,21.95
2023-06-10T01:57:32.649Z,21.80
2023-06-10T02:00:36.814Z,21.95
2023-06-10T02:03:41.021Z,21.80
2023-06-10T02:06:46.680Z,22.07
2023-06-10T02:09:52.362Z,22.09
2023-06-10T02:12:56.571Z,21.95
2023-06-10T02:16:01.358Z,21.88
2023-06-10T02:19:08.041Z,21.81
2023-06-10T02:22:12.734Z,21.90
2023-06-10T02:25:18.414Z,21.80
2023-06-10T02:28:22.420Z,21.80
2023-06-10T02:31:27.052Z,21.95
2023-06-10T02:34:32.527Z,21.76
2023-06-10T02:37:37.681Z,21.84
2023-06-10T02:40:43.566Z,21.86
2023-06-10T02:43:49.407Z,21.83
2023-06-10T02:46:54.113Z,21.78
2023-06-10T02:49:58.745Z,21.96
2023-06-10T02:53:03.101Z,21.82
2023-06-10T02:56:13.091Z,21.71
2023-06-10T02:59:17.580Z,21.83
2023-06-10T03:02:21.930Z,21.99
2023-06-10T03:05:29.364Z,21.53
2023-06-10T03:08:36.541Z,21.57
2023-06-10T03:11:46.732Z,22.12
2023-06-10T03:14:51.121Z,21.85
2023-06-10T03:17:55.914Z,21.73
2023-06-10T03:21:01.552Z,21.70
2023-06-10T03:24:06.739Z,21.63
2023-06-10T03:27:15.000Z,21.59
2023-06-10T03:30:22.181Z,21.77
2023-06-10T03:33:27.542Z,21.75
2023-06-10T03:36:31.951Z,22.06
2023-06-10T03:39:36.288Z,21.88
2023-06-10T03:42:42.092Z,21.89
2023-06-10T03:45:47.090Z,21.80
2023-06-10T03:48:51.250Z,22.15
2023-06-10T03:51:56.517Z,22.17
2023-06-10T03:55:00.934Z,21.86
2023-06-10T03:58:07.103Z,22.23
2023-06-10T04:01:12.073Z,22.24
2023-06-10T04:04:19.239Z,22.17
2023-06-10T04:07:25.180Z,22.16
2023-06-10T04:10:29.197Z,22.10
2023-06-10T04:13:34.753Z,22.29
2023-06-10T04:16:39.840Z,22.50
2023-06-10T04:19:44.120Z,22.41
2023-06-10T04:22:48.289Z,22.13
2023-06-10T04:25:53.647Z,21.99
2023-06-10T04:28:59.594Z,22.32
2023-06-10T04:32:03.844Z,22.38
2023-06-10T04:35:11.595Z,22.51
2023-06-10T04:38:16.152Z,22.62
2023-06-10T04:41:21.079Z,22.56
2023-06-10T04:44:26.678Z,22.62
2023-06-10T04:47:34.779Z,22.85
2023-06-10T04:50:39.050Z,22.86
2023-06-10T04:53:43.008Z,22.82
2023-06-10T04:56:47.113Z,22.63
2023-06-10T04:59:52.973Z,22.87
2023-06-10T05:02:57.644Z,23.26
2023-06-10T05:06:02.018Z,23.26
2023-06-10T05:09:06.768Z,23.40
2023-06-10T05:12:11.877Z,23.71
2023-06-10T05:15:17.588Z,23.87
2023-06-10T05:18:21.733Z,23.87
2023-06-10T05:21:26.033Z,23.56
2023-06-10T05:24:30.189Z,23.65
2023-06-10T05:27:34.458Z,23.76
2023-06-10T05:30:40.494Z,23.81
2023-06-10T05:33:44.724Z,24.02
2023-06-10T05:36:48.857Z,23.78
2023-06-10T05:39:53.036Z,24.23
2023-06-10T05:42:57.295Z,24.17
2023-06-10T05:46:03.116Z,24.37
2023-06-10T05:49:07.250Z,24.33
2023-06-10T05:52:11.661Z,24.54
2023-06-10T05:55:15.862Z,24.41
2023-06-10T05:58:20.129Z,24.32
2023-06-10T06:01:26.307Z,24.27
2023-06-10T06:04:30.568Z,24.31
2023-06-10T06:07:35.934Z,24.27
2023-06-10T06:10:40.073Z,24.42
2023-06-10T06:13:44.200Z,24.38
2023-06-10T06:16:49.893Z,24.18
2023-06-10T06:19:54.140Z,24.32
2023-06-10T06:22:58.368Z,24.67
2023-06-10T06:26:03.409Z,24.68
2023-06-10T06:29:07.571Z,24.78
2023-06-10T06:32:13.370Z,24.92
2023-06-10T06:35:17.476Z,24.80
2023-06-10T06:38:21.746Z,25.02
2023-06-10T06:41:27.098Z,25.14
2023-06-10T06:44:31.310Z,25.50
2023-06-10T06:47:37.052Z,25.94
2023-06-10T06:50:43.254Z,26.40
2023-06-10T06:53:47.504Z,27.00
2023-06-10T06:56:51.793Z,27.65
2023-06-10T06:59:55.867Z,27.21
2023-06-10T07:03:01.797Z,28.06
2023-06-10T07:06:06.459Z,28.35
2023-06-10T07:09:11.325Z,27.64
2023-06-10T07:12:15.520Z,27.86
2023-06-10T07:15:19.810Z,27.69
2023-06-10T07:18:25.465Z,27.11
2023-06-10T07:21:30.178Z,27.46
2023-06-10T07:24:34.209Z,27.40
2023-06-10T07:27:38.802Z,27.90
2023-06-10T07:30:43.115Z,28.19
2023-06-10T07:33:50.007Z,28.35
2023-06-10T07:36:54.101Z,28.65
2023-06-10T07:39:59.165Z,28.97
2023-06-10T07:43:03.428Z,29.22
2023-06-10T07:46:08.028Z,29.31
2023-06-10T07:49:13.773Z,30.06
2023-06-10T07:52:18.133Z,29.70
2023-06-10T07:55:22.516Z,29.20
2023-06-10T07:58:26.704Z,29.43
2023-06-10T08:01:31.664Z,29.71
2023-06-10T08:04:37.828Z,29.95
2023-06-10T08:07:43.137Z,30.30
2023-06-10T08:10:48.281Z,30.60
2023-06-10T08:13:52.425Z,29.64
2023-06-10T08:16:56.764Z,30.34
2023-06-10T08:20:03.114Z,29.59
2023-06-10T08:23:07.270Z,29.73
2023-06-10T08:26:11.572Z,30.13
2023-06-10T08:29:16.028Z,30.18
2023-06-10T08:32:20.272Z,30.81
2023-06-10T08:35:26.182Z,31.05
2023-06-10T08:38:30.431Z,29.90
2023-06-10T08:41:39.714Z,30.68
2023-06-10T08:44:45.083Z,31.19
2023-06-10T08:47:53.430Z,30.81
2023-06-10T08:51:00.694Z,30.91
2023-06-10T08:54:08.553Z,31.26
2023-06-10T08:57:12.973Z,31.61
2023-06-10T09:00:18.744Z,31.77
2023-06-10T09:03:25.676Z,31.35
2023-06-10T09:06:31.752Z,31.55
2023-06-10T09:09:38.084Z,31.43
2023-06-10T09:12:42.265Z,30.83
2023-06-10T09:15:47.306Z,30.36
2023-06-10T09:18:56.612Z,29.97
2023-06-10T09:22:02.423Z,30.20
2023-06-10T09:25:09.521Z,30.23
2023-06-10T09:28:16.712Z,30.26
2023-06-10T09:31:23.321Z,30.29
2023-06-10T09:34:29.193Z,30.00
2023-06-10T09:37:34.893Z,30.04
2023-06-10T09:40:52.565Z,30.57
2023-06-10T09:43:56.813Z,29.87
2023-06-10T09:47:01.317Z,29.48
2023-06-10T09:50:07.296Z,28.67
2023-06-10T09:53:14.935Z,28.35
2023-06-10T09:56:19.224Z,28.28
2023-06-10T09:59:33.466Z,28.36
2023-06-10T10:02:48.948Z,28.68
2023-06-10T10:06:02.166Z,29.01
2023-06-10T10:09:08.969Z,29.57
2023-06-10T10:12:14.541Z,30.19
2023-06-10T10:15:20.442Z,30.46
2023-06-10T10:18:30.355Z,30.72
2023-06-10T10:21:46.426Z,30.87
2023-06-10T10:24:54.292Z,30.69
2023-06-10T10:28:02.196Z,30.44
2023-06-10T10:31:13.348Z,29.46
2023-06-10T10:34:22.025Z,29.43
2023-06-10T10:37:26.976Z,29.50
2023-06-10T10:40:34.116Z,30.18
2023-06-10T10:43:38.743Z,30.88
2023-06-10T10:46:46.764Z,30.77
2023-06-10T10:49:54.153Z,30.69
2023-06-10T10:53:02.488Z,29.97
2023-06-10T10:56:12.190Z,30.07
2023-06-10T10:59:21.315Z,30.04
2023-06-10T11:02:44.693Z,29.71
2023-06-10T11:05:51.208Z,29.79
2023-06-10T11:08:56.203Z,29.54
2023-06-10T11:12:03.370Z,28.92
2023-06-10T11:15:08.608Z,28.82
2023-06-10T11:18:22.473Z,29.21
2023-06-10T11:21:29.144Z,29.08
2023-06-10T11:24:35.459Z,29.32
2023-06-10T11:27:42.467Z,29.01
2023-06-10T11:30:46.792Z,29.92
2023-06-10T11:33:54.945Z,30.38
2023-06-10T11:37:00.812Z,30.42
2023-06-10T11:40:05.944Z,30.95
2023-06-10T11:43:11.580Z,30.96
2023-06-10T11:46:16.957Z,30.77
2023-06-10T11:49:23.226Z,30.43
2023-06-10T11:52:30.614Z,30.99
2023-06-10T11:55:48.228Z,30.51
2023-06-10T11:58:58.647Z,31.22
2023-06-10T12:02:03.040Z,30.78
2023-06-10T12:05:13.995Z,31.26
2023-06-10T12:08:18.266Z,31.28
2023-06-10T12:11:24.532Z,31.62
2023-06-10T12:14:56.708Z,31.58
2023-06-10T12:18:01.258Z,31.82
2023-06-10T12:21:06.057Z,31.49
2023-06-10T12:24:12.602Z,32.02
2023-06-10T12:27:16.853Z,31.72
2023-06-10T12:30:23.897Z,32.04
2023-06-10T12:33:28.025Z,32.11
2023-06-10T12:36:33.932Z,31.71
2023-06-10T12:39:38.096Z,31.50
2023-06-10T12:42:43.250Z,31.27
2023-06-10T12:45:48.983Z,30.77
2023-06-10T12:48:55.700Z,30.61
2023-06-10T12:51:59.731Z,29.97
2023-06-10T12:55:05.655Z,29.67
2023-06-10T12:58:09.877Z,29.47
2023-06-10T13:01:15.899Z,29.17
2023-06-10T13:04:20.156Z,29.15
2023-06-10T13:07:24.982Z,29.03
2023-06-10T13:10:29.315Z,29.09
2023-06-10T13:13:33.579Z,29.05
2023-06-10T13:16:39.677Z,29.24
2023-06-10T13:19:43.976Z,29.54
2023-06-10T13:22:49.138Z,30.31
2023-06-10T13:25:53.387Z,30.12
2023-06-10T13:28:57.633Z,30.88
2023-06-10T13:32:03.269Z,31.07
2023-06-10T13:35:09.160Z,30.94
2023-06-10T13:38:13.995Z,30.60
2023-06-10T13:41:18.491Z,30.65
2023-06-10T13:44:22.630Z,30.82
2023-06-10T13:47:28.342Z,31.02
2023-06-10T13:50:32.633Z,30.46
2023-06-10T13:53:36.841Z,30.99
2023-06-10T13:56:41.043Z,30.25
2023-06-10T13:59:45.354Z,30.43
2023-06-10T14:02:51.151Z,31.31
2023-06-10T14:05:55.364Z,31.62
2023-06-10T14:08:59.699Z,31.72
2023-06-10T14:12:05.029Z,31.36
2023-06-10T14:15:10.461Z,30.64
2023-06-10T14:18:16.380Z,30.52
2023-06-10T14:21:20.596Z,30.09
2023-06-10T14:24:25.162Z,30.33
2023-06-10T14:27:29.350Z,30.44
2023-06-10T14:30:33.530Z,30.61
2023-06-10T14:33:39.133Z,30.56
2023-06-10T14:36:43.283Z,30.88
2023-06-10T14:39:47.421Z,30.41
2023-06-10T14:42:51.588Z,30.00
2023-06-10T14:45:57.369Z,29.95
2023-06-10T14:49:03.982Z,30.11
2023-06-10T14:52:08.632Z,30.54
2023-06-10T14:55:12.934Z,30.04
2023-06-10T14:58:17.584Z,29.86
2023-06-10T15:01:21.737Z,29.93
2023-06-10T15:04:27.513Z,30.23
2023-06-10T15:07:31.847Z,30.68
2023-06-10T15:10:36.032Z,30.80
2023-06-10T15:13:40.161Z,31.09
2023-06-10T15:16:44.333Z,31.01
2023-06-10T15:19:50.054Z,30.93
2023-06-10T15:22:55.191Z,30.53
2023-06-10T15:25:59.354Z,31.04
2023-06-10T15:29:05.861Z,30.87
2023-06-10T15:32:18.338Z,30.87
2023-06-10T15:35:25.006Z,30.62
2023-06-10T15:38:29.305Z,30.67
2023-06-10T15:41:33.458Z,30.46
2023-06-10T15:44:37.658Z,30.28
2023-06-10T15:47:42.976Z,30.20
2023-06-10T15:50:48.771Z,30.33
2023-06-10T15:53:53.036Z,30.35
2023-06-10T15:56:57.105Z,29.84
2023-06-10T16:00:01.401Z,29.88
2023-06-10T16:03:09.026Z,29.34
2023-06-10T16:06:14.688Z,29.15
2023-06-10T16:09:19.205Z,29.23
2023-06-10T16:12:23.516Z,29.00
2023-06-10T16:15:27.629Z,28.85
2023-06-10T16:18:31.894Z,29.07
2023-06-10T16:21:41.223Z,28.96
2023-06-10T16:24:45.484Z,28.66
2023-06-10T16:27:49.541Z,28.44
2023-06-10T16:30:53.846Z,28.40
2023-06-10T16:33:58.113Z,28.36
2023-06-10T16:37:04.321Z,28.28
2023-06-10T16:40:09.675Z,28.34
2023-06-10T16:43:13.862Z,28.18
2023-06-10T16:46:18.240Z,28.17
2023-06-10T16:49:22.680Z,28.02
2023-06-10T16:52:28.283Z,28.07
2023-06-10T16:55:32.473Z,28.00
2023-06-10T16:58:36.642Z,28.03
2023-06-10T17:01:40.888Z,27.85
2023-06-10T17:04:45.071Z,27.85
2023-06-10T17:07:51.072Z,27.89
2023-06-10T17:10:55.210Z,28.09
2023-06-10T17:13:59.467Z,27.90
2023-06-10T17:17:04.526Z,27.98
2023-06-10T17:20:09.795Z,27.99
2023-06-10T17:23:15.601Z,27.86
2023-06-10T17:26:19.867Z,28.03
2023-06-10T17:29:24.287Z,27.96
2023-06-10T17:32:28.583Z,27.94
2023-06-10T17:35:32.798Z,27.93
2023-06-10T17:38:38.508Z,27.88
2023-06-10T17:41:42.575Z,27.91
2023-06-10T17:44:46.727Z,27.89
2023-06-10T17:47:51.060Z,27.59
2023-06-10T17:50:55.299Z,27.48
2023-06-10T17:54:00.929Z,27.09
2023-06-10T17:57:05.343Z,27.08
2023-06-10T18:00:10.648Z,26.94
2023-06-10T18:03:16.886Z,26.89
2023-06-10T18:06:21.161Z,26.66
2023-06-10T18:09:27.357Z,26.69
2023-06-10T18:12:31.477Z,26.69
2023-06-10T18:15:37.750Z,26.52
2023-06-10T18:18:44.077Z,26.13
2023-06-10T18:21:48.062Z,25.76
2023-06-10T18:24:53.776Z,25.71
2023-06-10T18:27:57.926Z,25.45
2023-06-10T18:31:03.276Z,24.94
2023-06-10T18:34:07.473Z,24.95
2023-06-10T18:37:11.677Z,25.03
2023-06-10T18:40:19.320Z,25.01
2023-06-10T18:43:23.522Z,24.95
2023-06-10T18:46:27.769Z,25.03
2023-06-10T18:49:32.058Z,24.98
2023-06-10T18:52:36.298Z,24.85
2023-06-10T18:55:41.906Z,24.94
2023-06-10T18:58:48.041Z,25.02
2023-06-10T19:01:53.166Z,24.82
2023-06-10T19:04:57.278Z,24.85
2023-06-10T19:08:02.162Z,25.04
2023-06-10T19:11:09.020Z,24.88
2023-06-10T19:14:13.531Z,24.85
2023-06-10T19:17:17.986Z,24.74
2023-06-10T19:20:22.456Z,24.67
2023-06-10T19:23:26.736Z,24.84
2023-06-10T19:26:32.593Z,24.86
2023-06-10T19:29:36.756Z,24.90
2023-06-10T19:32:41.219Z,24.67
2023-06-10T19:35:45.598Z,24.62
2023-06-10T19:38:49.833Z,24.67
2023-06-10T19:41:55.504Z,24.62
2023-06-10T19:44:59.587Z,24.50
2023-06-10T19:48:03.975Z,24.45
2023-06-10T19:51:08.253Z,24.53
2023-06-10T19:54:12.378Z,24.52
2023-06-10T19:57:18.144Z,24.47
2023-06-10T20:00:22.306Z,24.39
2023-06-10T20:03:26.659Z,24.35
2023-06-10T20:06:30.904Z,24.39
2023-06-10T20:09:36.135Z,24.46
2023-06-10T20:12:41.967Z,24.48
2023-06-10T20:15:46.139Z,24.47
2023-06-10T20:18:53.952Z,24.42
2023-06-10T20:21:58.132Z,24.49
2023-06-10T20:25:02.548Z,24.41
2023-06-10T20:28:08.691Z,24.58
2023-06-10T20:31:12.875Z,24.41
2023-06-10T20:34:17.090Z,24.39
2023-06-10T20:37:21.307Z,24.28
2023-06-10T20:40:25.534Z,24.32
2023-06-10T20:43:31.192Z,24.32
2023-06-10T20:46:35.483Z,24.06
2023-06-10T20:49:39.649Z,24.23
2023-06-10T20:52:43.843Z,24.10
2023-06-10T20:55:48.130Z,24.00
2023-06-10T20:58:53.806Z,23.88
2023-06-10T21:01:58.083Z,24.12
2023-06-10T21:05:02.440Z,23.90
2023-06-10T21:08:07.657Z,24.04
2023-06-10T21:11:11.967Z,24.07
2023-06-10T21:14:17.540Z,23.83
2023-06-10T21:17:21.839Z,23.88
2023-06-10T21:20:25.956Z,23.75
2023-06-10T21:23:30.176Z,23.61
2023-06-10T21:26:36.167Z,23.55
2023-06-10T21:29:42.381Z,23.54
2023-06-10T21:32:47.226Z,23.38
2023-06-10T21:35:51.643Z,23.28
2023-06-10T21:38:55.897Z,23.26
2023-06-10T21:42:00.077Z,23.18
2023-06-10T21:45:06.341Z,23.35
2023-06-10T21:48:11.930Z,23.26
2023-06-10T21:51:16.218Z,23.38
2023-06-10T21:54:20.597Z,23.49
2023-06-10T21:57:25.463Z,23.50
2023-06-10T22:00:31.183Z,23.49
2023-06-10T22:03:35.360Z,23.48
2023-06-10T22:06:39.607Z,23.47
2023-06-10T22:09:49.440Z,23.04
2023-06-10T22:12:53.655Z,23.02
2023-06-10T22:15:59.269Z,22.97
2023-06-10T22:19:03.468Z,23.32
2023-06-10T22:22:08.652Z,23.47
2023-06-10T22:25:12.910Z,23.40
2023-06-10T22:28:17.418Z,23.48
2023-06-10T22:31:23.143Z,23.41
2023-06-10T22:34:27.435Z,23.70
2023-06-10T22:37:31.555Z,23.76
2023-06-10T22:40:35.783Z,23.83
2023-06-10T22:43:39.843Z,23.72
2023-06-10T22:46:45.544Z,23.59
2023-06-10T22:49:49.734Z,23.69
2023-06-10T22:52:54.932Z,23.64
2023-06-10T22:55:59.152Z,23.64
2023-06-10T22:59:03.984Z,23.50
2023-06-10T23:02:09.880Z,23.37
2023-06-10T23:05:14.261Z,23.46
2023-06-10T23:08:18.547Z,23.33
2023-06-10T23:11:22.641Z,23.44
2023-06-10T23:14:26.858Z,23.39
2023-06-10T23:17:32.496Z,23.28
2023-06-10T23:20:37.096Z,23.00
2023-06-10T23:23:42.119Z,22.92
2023-06-10T23:26:46.339Z,22.96
2023-06-10T23:32:59.916Z,22.93
2023-06-10T23:36:04.516Z,22.83
2023-06-10T23:39:08.641Z,22.75
2023-06-10T23:42:12.782Z,22.56
2023-06-10T23:45:17.098Z,22.77
2023-06-10T23:48:22.709Z,22.52
2023-06-10T23:51:26.754Z,22.59
2023-06-10T23:54:30.979Z,22.67
2023-06-10T23:57:35.106Z,22.40
